createdAt,value
2018-12-04T00:01:46.494Z,0.70
2018-12-04T00:04:15.401Z,0.70
2018-12-04T00:06:44.300Z,2.00
2018-12-04T00:09:13.252Z,0.50
2018-12-04T00:11:42.191Z,1.10
2018-12-04T00:14:11.121Z,2.30
2018-12-04T00:16:40.101Z,1.03
2018-12-04T00:19:09.148Z,2.20
2018-12-04T00:21:38.097Z,1.33
2018-12-04T00:24:07.076Z,1.20
2018-12-04T00:26:35.945Z,1.53
2018-12-04T00:29:05.018Z,1.20
2018-12-04T00:31:33.955Z,0.50
2018-12-04T00:34:02.890Z,0.83
2018-12-04T00:36:31.770Z,1.73
2018-12-04T00:39:01.801Z,1.33
2018-12-04T00:41:30.852Z,0.70
2018-12-04T00:43:59.759Z,1.50
2018-12-04T00:46:28.650Z,0.50
2018-12-04T00:48:57.513Z,1.10
2018-12-04T00:51:26.389Z,0.73
2018-12-04T00:53:55.331Z,1.77
2018-12-04T00:56:24.218Z,1.90
2018-12-04T00:58:53.117Z,1.07
2018-12-04T01:01:22.015Z,1.00
2018-12-04T01:03:51.036Z,0.97
2018-12-04T01:06:19.944Z,1.53
2018-12-04T01:08:48.817Z,1.87
2018-12-04T01:11:17.713Z,2.57
2018-12-04T01:13:46.656Z,2.63
2018-12-04T01:16:15.539Z,1.33
2018-12-04T01:18:44.449Z,2.93
2018-12-04T01:21:13.383Z,1.90
2018-12-04T01:23:42.494Z,2.60
2018-12-04T01:26:11.435Z,1.50
2018-12-04T01:28:40.342Z,2.30
2018-12-04T01:31:09.231Z,1.90
2018-12-04T01:33:38.157Z,3.33
2018-12-04T01:36:07.151Z,1.20
2018-12-04T01:38:36.133Z,1.80
2018-12-04T01:41:05.118Z,2.00
2018-12-04T01:43:34.105Z,0.90
2018-12-04T01:46:03.090Z,2.40
2018-12-04T01:48:32.067Z,4.40
2018-12-04T01:51:01.074Z,2.27
2018-12-04T01:53:30.009Z,2.00
2018-12-04T01:55:58.913Z,3.53
2018-12-04T01:58:27.914Z,1.50
2018-12-04T02:00:56.961Z,1.77
2018-12-04T02:03:25.905Z,2.10
2018-12-04T02:05:54.793Z,1.35
2018-12-04T02:08:23.740Z,2.87
2018-12-04T02:10:52.653Z,2.10
2018-12-04T02:13:21.600Z,1.20
2018-12-04T02:15:50.497Z,1.57
2018-12-04T02:18:19.424Z,2.33
2018-12-04T02:23:21.688Z,3.30
2018-12-04T02:25:50.621Z,3.77
2018-12-04T02:28:19.554Z,2.80
2018-12-04T02:30:48.572Z,2.43
2018-12-04T02:33:17.462Z,2.20
2018-12-04T02:35:47.360Z,2.60
2018-12-04T02:38:16.422Z,1.30
2018-12-04T02:40:45.440Z,1.90
2018-12-04T02:43:14.394Z,4.70
2018-12-04T02:45:43.427Z,4.30
2018-12-04T02:48:12.433Z,2.50
2018-12-04T02:50:41.354Z,2.23
2018-12-04T02:53:10.366Z,2.80
2018-12-04T02:55:39.413Z,5.00
2018-12-04T02:58:08.357Z,5.33
2018-12-04T03:00:37.383Z,2.00
2018-12-04T03:03:06.385Z,4.10
2018-12-04T03:05:35.334Z,1.77
2018-12-04T03:08:04.292Z,2.20
2018-12-04T03:10:33.173Z,4.10
2018-12-04T03:13:02.089Z,2.07
2018-12-04T03:15:31.068Z,1.73
2018-12-04T03:18:00.071Z,1.97
2018-12-04T03:20:29.020Z,2.87
2018-12-04T03:22:57.925Z,2.80
2018-12-04T03:25:26.813Z,3.17
2018-12-04T03:27:55.749Z,1.83
2018-12-04T03:30:26.608Z,1.63
2018-12-04T03:32:55.602Z,3.10
2018-12-04T03:35:24.546Z,2.37
2018-12-04T03:37:53.461Z,2.40
2018-12-04T03:40:22.426Z,2.93
2018-12-04T03:42:51.399Z,1.93
2018-12-04T03:45:20.291Z,1.30
2018-12-04T03:47:49.260Z,1.30
2018-12-04T03:50:18.174Z,1.10
2018-12-04T03:52:47.052Z,1.70
2018-12-04T03:55:15.923Z,2.13
2018-12-04T03:57:44.812Z,1.57
2018-12-04T04:00:13.793Z,1.62
2018-12-04T04:02:42.708Z,3.03
2018-12-04T04:05:11.626Z,3.13
2018-12-04T04:07:40.504Z,4.50
2018-12-04T04:10:09.521Z,3.17
2018-12-04T04:12:38.405Z,1.37
2018-12-04T04:15:07.677Z,1.83
2018-12-04T04:17:36.574Z,4.07
2018-12-04T04:20:05.619Z,1.47
2018-12-04T04:22:34.625Z,1.70
2018-12-04T04:25:03.673Z,2.77
2018-12-04T04:27:32.614Z,2.50
2018-12-04T04:30:01.535Z,3.67
2018-12-04T04:32:30.528Z,2.53
2018-12-04T04:35:00.589Z,2.47
2018-12-04T04:37:29.445Z,2.47
2018-12-04T04:39:58.389Z,3.13
2018-12-04T04:42:27.304Z,5.00
2018-12-04T04:44:56.274Z,3.13
2018-12-04T04:47:25.200Z,4.03
2018-12-04T04:49:54.154Z,2.70
2018-12-04T04:52:23.129Z,2.40
2018-12-04T04:54:52.258Z,2.70
2018-12-04T04:57:21.270Z,2.37
2018-12-04T04:59:50.192Z,2.23
2018-12-04T05:02:19.064Z,3.70
2018-12-04T05:04:48.026Z,3.97
2018-12-04T05:07:16.951Z,3.37
2018-12-04T05:09:45.869Z,3.00
2018-12-04T05:12:14.765Z,2.47
2018-12-04T05:14:43.711Z,2.53
2018-12-04T05:17:12.607Z,5.13
2018-12-04T05:19:41.572Z,5.10
2018-12-04T05:22:10.605Z,4.27
2018-12-04T05:24:39.497Z,4.10
2018-12-04T05:27:08.406Z,3.53
2018-12-04T05:29:37.396Z,1.97
2018-12-04T05:32:06.416Z,2.17
2018-12-04T05:34:35.414Z,3.43
2018-12-04T05:37:05.663Z,3.60
2018-12-04T05:39:34.641Z,3.03
2018-12-04T05:42:03.658Z,1.87
2018-12-04T05:44:32.613Z,2.30
2018-12-04T05:47:01.525Z,5.73
2018-12-04T05:49:30.425Z,3.50
2018-12-04T05:51:59.451Z,2.17
2018-12-04T05:54:28.393Z,4.17
2018-12-04T05:56:57.316Z,2.03
2018-12-04T05:59:26.264Z,3.50
2018-12-04T06:01:55.140Z,3.23
2018-12-04T06:04:24.273Z,1.00
2018-12-04T06:06:53.361Z,2.40
2018-12-04T06:09:23.252Z,2.63
2018-12-04T06:11:52.145Z,1.73
2018-12-04T06:14:21.112Z,2.10
2018-12-04T06:16:50.069Z,4.33
2018-12-04T06:19:19.044Z,3.40
2018-12-04T06:21:47.996Z,1.90
2018-12-04T06:24:16.872Z,4.80
2018-12-04T06:26:45.833Z,5.20
2018-12-04T06:29:14.708Z,3.17
2018-12-04T06:31:43.633Z,2.93
2018-12-04T06:34:12.678Z,2.30
2018-12-04T06:36:41.584Z,3.30
2018-12-04T06:39:10.468Z,2.00
2018-12-04T06:41:39.348Z,3.43
2018-12-04T06:44:08.229Z,2.77
2018-12-04T06:46:37.121Z,3.37
2018-12-04T06:49:06.017Z,3.47
2018-12-04T06:51:35.112Z,3.27
2018-12-04T06:54:04.187Z,3.10
2018-12-04T06:56:33.101Z,4.83
2018-12-04T06:59:02.104Z,1.93
2018-12-04T07:01:30.992Z,1.27
2018-12-04T07:04:00.033Z,3.60
2018-12-04T07:06:28.964Z,1.27
2018-12-04T07:08:57.885Z,4.40
2018-12-04T07:11:26.816Z,6.07
2018-12-04T07:13:55.725Z,5.27
2018-12-04T07:16:24.677Z,2.90
2018-12-04T07:18:53.584Z,2.83
2018-12-04T07:21:22.505Z,5.10
2018-12-04T07:23:51.810Z,3.67
2018-12-04T07:26:20.777Z,5.33
2018-12-04T07:28:49.788Z,3.13
2018-12-04T07:31:18.819Z,2.97
2018-12-04T07:33:47.825Z,5.67
2018-12-04T07:36:16.782Z,6.30
2018-12-04T07:38:45.774Z,2.57
2018-12-04T07:41:14.690Z,4.90
2018-12-04T07:43:43.621Z,4.07
2018-12-04T07:46:12.519Z,3.07
2018-12-04T07:48:41.532Z,3.60
2018-12-04T07:51:10.544Z,3.70
2018-12-04T07:53:39.482Z,3.57
2018-12-04T07:56:08.432Z,2.37
2018-12-04T07:58:37.337Z,6.33
2018-12-04T08:01:06.253Z,4.37
2018-12-04T08:03:35.195Z,3.00
2018-12-04T08:06:08.485Z,5.27
2018-12-04T08:08:37.399Z,2.40
2018-12-04T08:11:06.456Z,2.93
2018-12-04T08:13:35.330Z,3.63
2018-12-04T08:16:04.361Z,4.90
2018-12-04T08:18:33.350Z,5.13
2018-12-04T08:21:03.428Z,5.13
2018-12-04T08:23:32.322Z,4.53
2018-12-04T08:26:01.223Z,2.70
2018-12-04T08:28:30.185Z,4.10
2018-12-04T08:30:59.135Z,3.23
2018-12-04T08:33:28.042Z,4.20
2018-12-04T08:35:56.956Z,3.73
2018-12-04T08:38:25.831Z,5.37
2018-12-04T08:40:54.826Z,3.03
2018-12-04T08:43:23.724Z,4.87
2018-12-04T08:45:53.089Z,4.13
2018-12-04T08:48:22.060Z,2.47
2018-12-04T08:50:51.049Z,5.20
2018-12-04T08:53:20.019Z,3.67
2018-12-04T08:55:48.954Z,3.43
2018-12-04T08:58:17.921Z,4.43
2018-12-04T09:00:46.801Z,3.60
2018-12-04T09:03:15.763Z,2.33
2018-12-04T09:05:44.778Z,3.13
2018-12-04T09:08:13.769Z,1.37
2018-12-04T09:10:42.696Z,3.20
2018-12-04T09:13:11.567Z,2.00
2018-12-04T09:15:41.605Z,1.90
2018-12-04T09:18:10.488Z,2.27
2018-12-04T09:20:39.467Z,4.53
2018-12-04T09:23:08.383Z,1.30
2018-12-04T09:25:37.365Z,1.90
2018-12-04T09:28:06.325Z,1.57
2018-12-04T09:30:35.249Z,2.23
2018-12-04T09:33:04.236Z,2.57
2018-12-04T09:35:33.134Z,2.67
2018-12-04T09:38:02.043Z,1.13
2018-12-04T09:40:30.969Z,2.60
2018-12-04T09:43:04.208Z,3.80
2018-12-04T09:45:30.822Z,2.00
2018-12-04T09:47:59.748Z,2.70
2018-12-04T09:50:28.677Z,1.67
2018-12-04T09:52:57.692Z,2.53
2018-12-04T09:55:26.580Z,2.30
2018-12-04T09:57:55.511Z,3.40
2018-12-04T10:00:24.385Z,2.80
2018-12-04T10:02:53.300Z,3.37
2018-12-04T10:05:22.356Z,2.17
2018-12-04T10:07:51.252Z,2.20
2018-12-04T10:10:20.149Z,2.53
2018-12-04T10:12:49.089Z,3.00
2018-12-04T10:15:17.989Z,1.17
2018-12-04T10:17:46.853Z,1.13
2018-12-04T10:20:15.781Z,1.33
2018-12-04T10:22:44.676Z,2.07
2018-12-04T10:25:13.556Z,1.90
2018-12-04T10:27:42.424Z,1.90
2018-12-04T10:30:11.405Z,3.58
2018-12-04T10:32:40.298Z,1.77
2018-12-04T10:35:09.407Z,1.37
2018-12-04T10:37:38.280Z,3.93
2018-12-04T10:40:08.080Z,1.37
2018-12-04T10:42:37.049Z,2.63
2018-12-04T10:45:06.659Z,1.97
2018-12-04T10:47:35.618Z,3.67
2018-12-04T10:50:06.640Z,2.53
2018-12-04T10:52:35.661Z,3.17
2018-12-04T10:55:05.644Z,4.10
2018-12-04T10:57:34.577Z,3.37
2018-12-04T11:00:05.954Z,1.42
2018-12-04T11:02:39.181Z,4.43
2018-12-04T11:05:08.154Z,4.10
2018-12-04T11:07:37.061Z,3.67
2018-12-04T11:10:06.264Z,1.20
2018-12-04T11:12:35.212Z,1.80
2018-12-04T11:15:04.576Z,1.03
2018-12-04T11:17:33.489Z,1.10
2018-12-04T11:20:02.411Z,2.67
2018-12-04T11:22:31.294Z,1.43
2018-12-04T11:25:01.203Z,3.53
2018-12-04T11:27:31.286Z,1.73
2018-12-04T11:30:00.161Z,1.55
2018-12-04T11:32:29.079Z,1.77
2018-12-04T11:34:58.037Z,2.97
2018-12-04T11:37:26.933Z,0.87
2018-12-04T11:39:55.849Z,4.50
2018-12-04T11:42:24.747Z,2.23
2018-12-04T11:44:53.699Z,2.53
2018-12-04T11:47:22.565Z,0.77
2018-12-04T11:49:51.499Z,2.17
2018-12-04T11:52:20.459Z,2.83
2018-12-04T11:54:49.614Z,2.57
2018-12-04T11:57:19.145Z,2.67
2018-12-04T11:59:48.121Z,2.50
2018-12-04T12:02:16.980Z,3.72
2018-12-04T12:04:45.872Z,4.10
2018-12-04T12:07:20.570Z,2.70
2018-12-04T12:09:47.937Z,1.93
2018-12-04T12:12:16.812Z,3.23
2018-12-04T12:14:45.700Z,4.03
2018-12-04T12:17:14.717Z,2.63
2018-12-04T12:19:43.596Z,1.43
2018-12-04T12:22:12.468Z,3.50
2018-12-04T12:24:41.336Z,3.10
2018-12-04T12:27:10.220Z,2.97
2018-12-04T12:29:39.162Z,4.33
2018-12-04T12:32:08.512Z,2.12
2018-12-04T12:34:37.432Z,2.13
2018-12-04T12:37:06.389Z,3.40
2018-12-04T12:39:35.285Z,5.17
2018-12-04T12:42:04.282Z,1.82
2018-12-04T12:44:33.206Z,3.60
2018-12-04T12:47:02.171Z,3.87
2018-12-04T12:49:31.071Z,1.67
2018-12-04T12:52:00.049Z,3.67
2018-12-04T12:54:30.053Z,1.47
2018-12-04T12:56:59.119Z,5.20
2018-12-04T12:59:28.043Z,3.53
2018-12-04T13:01:56.981Z,4.80
2018-12-04T13:04:25.872Z,3.80
2018-12-04T13:06:54.754Z,5.80
2018-12-04T13:09:23.670Z,3.00
2018-12-04T13:11:52.906Z,5.27
2018-12-04T13:14:21.777Z,3.43
2018-12-04T13:16:50.669Z,4.70
2018-12-04T13:19:19.871Z,3.00
2018-12-04T13:21:48.807Z,3.67
2018-12-04T13:24:17.727Z,2.08
2018-12-04T13:26:46.647Z,4.63
2018-12-04T13:29:15.613Z,3.63
2018-12-04T13:31:44.501Z,2.30
2018-12-04T13:34:13.527Z,3.33
2018-12-04T13:36:42.524Z,3.90
2018-12-04T13:39:11.597Z,1.77
2018-12-04T13:41:40.627Z,2.57
2018-12-04T13:44:09.577Z,2.40
2018-12-04T13:46:38.550Z,2.23
2018-12-04T13:49:07.561Z,4.23
2018-12-04T13:51:36.452Z,3.53
2018-12-04T13:54:05.435Z,2.43
2018-12-04T13:56:34.592Z,2.00
2018-12-04T13:59:03.461Z,4.00
2018-12-04T14:01:32.341Z,2.07
2018-12-04T14:04:01.876Z,2.73
2018-12-04T14:06:30.854Z,2.53
2018-12-04T14:08:59.849Z,2.03
2018-12-04T14:11:28.815Z,2.00
2018-12-04T14:13:57.901Z,0.93
2018-12-04T14:16:26.876Z,0.70
2018-12-04T14:18:56.081Z,3.37
2018-12-04T14:21:25.050Z,3.63
2018-12-04T14:23:54.192Z,3.47
2018-12-04T14:26:23.258Z,2.37
2018-12-04T14:28:52.148Z,0.97
2018-12-04T14:31:21.039Z,3.77
2018-12-04T14:33:50.257Z,1.27
2018-12-04T14:36:19.402Z,1.98
2018-12-04T14:38:48.450Z,2.10
2018-12-04T14:41:17.513Z,2.60
2018-12-04T14:43:46.411Z,3.60
2018-12-04T14:46:15.350Z,1.03
2018-12-04T14:48:44.290Z,1.90
2018-12-04T14:51:13.368Z,2.27
2018-12-04T14:53:42.309Z,0.70
2018-12-04T14:56:11.485Z,1.50
2018-12-04T14:58:40.457Z,2.40
2018-12-04T15:01:09.468Z,2.27
2018-12-04T15:03:38.425Z,1.47
2018-12-04T15:06:07.340Z,2.08
2018-12-04T15:08:36.226Z,2.13
2018-12-04T15:11:05.228Z,1.00
2018-12-04T15:13:35.217Z,2.57
2018-12-04T15:16:04.393Z,1.07
2018-12-04T15:18:33.352Z,1.30
2018-12-04T15:21:02.292Z,0.67
2018-12-04T15:23:31.186Z,1.10
2018-12-04T15:26:00.162Z,2.30
2018-12-04T15:28:29.164Z,1.37
2018-12-04T15:30:58.182Z,1.10
2018-12-04T15:33:27.165Z,1.57
2018-12-04T15:35:57.031Z,2.70
2018-12-04T15:38:25.981Z,2.07
2018-12-04T15:40:54.908Z,3.27
2018-12-04T15:43:23.830Z,2.07
2018-12-04T15:45:52.796Z,1.67
2018-12-04T15:48:21.693Z,2.00
2018-12-04T15:50:50.581Z,5.63
2018-12-04T15:53:19.614Z,4.13
2018-12-04T15:55:48.585Z,2.87
2018-12-04T15:58:17.466Z,2.23
2018-12-04T16:00:46.398Z,2.77
2018-12-04T16:03:15.311Z,3.60
2018-12-04T16:05:44.240Z,2.33
2018-12-04T16:08:13.153Z,0.90
2018-12-04T16:10:42.057Z,2.27
2018-12-04T16:13:11.022Z,4.10
2018-12-04T16:15:39.913Z,2.80
2018-12-04T16:18:08.941Z,1.60
2018-12-04T16:20:37.843Z,1.33
2018-12-04T16:23:06.747Z,2.30
2018-12-04T16:25:35.677Z,1.10
2018-12-04T16:28:04.774Z,4.37
2018-12-04T16:30:33.681Z,5.27
2018-12-04T16:33:02.564Z,5.03
2018-12-04T16:35:31.449Z,1.27
2018-12-04T16:38:00.449Z,2.97
2018-12-04T16:40:29.356Z,2.40
2018-12-04T16:42:58.293Z,3.00
2018-12-04T16:45:27.365Z,2.40
2018-12-04T16:47:56.244Z,2.60
2018-12-04T16:50:25.347Z,2.10
2018-12-04T16:52:54.382Z,1.17
2018-12-04T16:55:23.527Z,1.57
2018-12-04T16:57:52.457Z,1.37
2018-12-04T17:00:21.382Z,2.03
2018-12-04T17:02:50.301Z,1.53
2018-12-04T17:05:19.310Z,3.23
2018-12-04T17:07:48.452Z,1.37
2018-12-04T17:10:22.399Z,1.37
2018-12-04T17:12:48.189Z,1.73
2018-12-04T17:15:17.070Z,2.37
2018-12-04T17:17:45.945Z,1.57
2018-12-04T17:20:14.814Z,4.03
2018-12-04T17:22:43.688Z,2.03
2018-12-04T17:25:12.707Z,0.80
2018-12-04T17:27:41.625Z,1.30
2018-12-04T17:30:11.590Z,0.73
2018-12-04T17:32:40.595Z,1.13
2018-12-04T17:35:09.539Z,1.23
2018-12-04T17:37:38.504Z,1.40
2018-12-04T17:40:07.972Z,0.90
2018-12-04T17:42:36.966Z,0.90
2018-12-04T17:45:06.441Z,1.33
2018-12-04T17:47:35.333Z,3.53
2018-12-04T17:50:05.193Z,1.00
2018-12-04T17:52:34.106Z,1.33
2018-12-04T17:55:03.159Z,4.07
2018-12-04T17:57:32.996Z,1.90
2018-12-04T18:00:01.892Z,1.60
2018-12-04T18:02:32.797Z,0.83
2018-12-04T18:05:01.837Z,1.20
2018-12-04T18:07:32.720Z,2.33
2018-12-04T18:10:01.685Z,3.07
2018-12-04T18:12:30.640Z,3.73
2018-12-04T18:15:01.717Z,3.70
2018-12-04T18:17:31.734Z,2.27
2018-12-04T18:25:12.761Z,2.50
2018-12-04T18:27:41.654Z,3.13
2018-12-04T18:30:10.736Z,3.93
2018-12-04T18:32:39.631Z,3.23
2018-12-04T18:35:08.658Z,3.87
2018-12-04T18:37:37.652Z,3.83
2018-12-04T18:40:06.949Z,2.17
2018-12-04T18:42:35.847Z,2.47
2018-12-04T18:45:06.330Z,2.83
2018-12-04T18:47:35.201Z,4.43
2018-12-04T18:50:06.082Z,4.57
2018-12-04T18:52:35.211Z,2.50
2018-12-04T18:55:04.433Z,2.90
2018-12-04T18:57:33.450Z,2.00
2018-12-04T19:00:02.394Z,2.57
2018-12-04T19:02:31.373Z,2.90
2018-12-04T19:05:00.348Z,2.00
2018-12-04T19:07:29.218Z,1.47
2018-12-04T19:09:58.273Z,2.93
2018-12-04T19:12:27.347Z,2.40
2018-12-04T19:14:56.308Z,1.83
2018-12-04T19:17:25.277Z,2.23
2018-12-04T19:19:54.149Z,1.53
2018-12-04T19:22:23.160Z,1.47
2018-12-04T19:24:52.450Z,3.57
2018-12-04T19:27:21.469Z,2.07
2018-12-04T19:29:50.419Z,2.00
2018-12-04T19:32:19.426Z,1.87
2018-12-04T19:34:48.325Z,2.30
2018-12-04T19:37:17.331Z,1.87
2018-12-04T19:39:46.301Z,3.03
2018-12-04T19:42:16.302Z,1.50
2018-12-04T19:44:45.266Z,1.43
2018-12-04T19:47:14.298Z,2.47
2018-12-04T19:49:43.231Z,2.37
2018-12-04T19:52:12.166Z,1.83
2018-12-04T19:54:41.126Z,2.33
2018-12-04T19:57:10.112Z,1.50
2018-12-04T19:59:39.055Z,2.10
2018-12-04T20:02:07.976Z,2.30
2018-12-04T20:04:36.963Z,2.33
2018-12-04T20:07:05.988Z,4.43
2018-12-04T20:09:34.979Z,3.70
2018-12-04T20:12:04.053Z,4.03
2018-12-04T20:14:33.010Z,3.90
2018-12-04T20:17:01.974Z,3.40
2018-12-04T20:19:30.932Z,4.53
2018-12-04T20:21:59.817Z,2.40
2018-12-04T20:24:28.702Z,6.40
2018-12-04T20:26:57.598Z,3.80
2018-12-04T20:29:26.584Z,3.67
2018-12-04T20:31:55.512Z,5.13
2018-12-04T20:34:24.392Z,5.03
2018-12-04T20:36:53.319Z,3.63
2018-12-04T20:39:22.276Z,6.13
2018-12-04T20:41:51.149Z,4.17
2018-12-04T20:44:20.112Z,6.23
2018-12-04T20:46:49.016Z,6.17
2018-12-04T20:49:19.005Z,5.23
2018-12-04T20:51:47.854Z,6.70
2018-12-04T20:54:17.037Z,5.37
2018-12-04T20:56:46.013Z,6.23
2018-12-04T20:59:15.048Z,5.43
2018-12-04T21:01:44.136Z,4.97
2018-12-04T21:04:13.125Z,5.40
2018-12-04T21:06:41.986Z,4.67
2018-12-04T21:09:10.921Z,5.30
2018-12-04T21:11:39.880Z,5.13
2018-12-04T21:14:08.781Z,5.13
2018-12-04T21:16:38.883Z,4.70
2018-12-04T21:19:07.781Z,5.60
2018-12-04T21:21:36.670Z,4.63
2018-12-04T21:24:05.549Z,4.73
2018-12-04T21:26:37.031Z,5.13
2018-12-04T21:29:10.560Z,6.23
2018-12-04T21:31:45.357Z,7.43
2018-12-04T21:34:19.553Z,9.77
2018-12-04T21:36:53.927Z,8.90
2018-12-04T21:39:28.057Z,8.97
2018-12-04T21:41:59.313Z,7.50
2018-12-04T21:44:33.620Z,8.17
2018-12-04T21:47:07.871Z,12.37
2018-12-04T21:49:36.948Z,9.03
2018-12-04T21:52:06.885Z,11.77
2018-12-04T21:54:35.829Z,12.23
2018-12-04T21:57:04.775Z,9.63
2018-12-04T21:59:33.807Z,11.07
2018-12-04T22:02:02.745Z,12.67
2018-12-04T22:04:31.912Z,10.63
2018-12-04T22:07:00.793Z,10.43
2018-12-04T22:09:29.974Z,13.27
2018-12-04T22:11:59.142Z,13.97
2018-12-04T22:14:28.622Z,11.03
2018-12-04T22:16:58.090Z,12.47
2018-12-04T22:19:27.445Z,13.27
2018-12-04T22:21:56.406Z,15.07
2018-12-04T22:24:25.512Z,17.47
2018-12-04T22:26:54.403Z,16.27
2018-12-04T22:29:23.286Z,19.57
2018-12-04T22:31:52.189Z,19.97
2018-12-04T22:34:21.069Z,20.17
2018-12-04T22:36:50.016Z,25.67
2018-12-04T22:39:18.949Z,32.90
2018-12-04T22:41:48.006Z,13.83
2018-12-04T22:44:16.940Z,13.03
2018-12-04T22:46:45.918Z,13.13
2018-12-04T22:49:14.946Z,10.70
2018-12-04T22:51:43.913Z,19.10
2018-12-04T22:54:12.805Z,18.23
2018-12-04T22:56:41.707Z,14.07
2018-12-04T22:59:10.706Z,13.43
2018-12-04T23:01:40.784Z,14.77
2018-12-04T23:04:10.973Z,21.10
2018-12-04T23:06:39.893Z,19.30
2018-12-04T23:09:10.666Z,17.83
2018-12-04T23:11:41.141Z,14.53
2018-12-04T23:14:10.049Z,19.20
2018-12-04T23:16:38.949Z,18.93
2018-12-04T23:19:08.953Z,15.93
2018-12-04T23:21:37.936Z,13.43
2018-12-04T23:24:07.080Z,14.93
2018-12-04T23:26:35.952Z,17.97
2018-12-04T23:29:04.980Z,22.83
2018-12-04T23:31:33.962Z,19.90
2018-12-04T23:34:03.133Z,17.80
2018-12-04T23:36:32.012Z,14.43
2018-12-04T23:39:00.893Z,20.20
2018-12-04T23:41:29.867Z,18.27
2018-12-04T23:43:58.751Z,15.27
2018-12-04T23:46:27.806Z,21.40
2018-12-04T23:48:56.737Z,34.17
2018-12-04T23:51:25.678Z,13.87
2018-12-04T23:53:54.545Z,25.83
2018-12-04T23:56:23.440Z,14.47
2018-12-04T23:58:52.363Z,16.50
